Eastland Commons, Illinois
Current Conditions -  °F | °C
As of 10:56 PM on Friday 28 Nov 2014 (Local Time) from KBMI Reporting Station
Clear Clear  
Wind Chill: 24°   Ceiling: Unl
Heat Index: 34°   Visibility: 10mi
Dew Point: 31°   Wind: 15mph
Humidity: 89%   Direction: 190°S
Pressure: 29.89"   Gusts: NA
Location:  40.4766°N, 88.992°W
Report Text: KBMI 290456Z AUTO 19013KT 10SM CLR 01/M01 A2989 RMK AO2 T00111005 SLP136
Loading
Personal Weather Stations






























Interactive Weather Map New forecast layout! Learn more

10-Day Weather Forecast

Advertisements
Track Severe Weather on mobile